NO-0026 weather

Evje Airfield
Evje og Hornnes, Aust-Agder, Norway

Public forecast

Using degrees Celsius for public forecast. Weather courtesy of forecast.io.

Closest aviation weather report (METAR) to Evje Airfield

Closest report is Kristiansand Airport, 25.5 nm (47.3 km) SSE. Retrieved 2019/10/21 01:20 UTC (0 seconds ago):

ENCN 210120Z AUTO 05004KT 0150 R03/0650N R21/P2000N FG VV000 01/01 Q1018

Closest aviation forecast (TAF) to Evje Airfield

Forecast is more than 12 hours old.

Closest forecast is Kristiansand Airport, 25.5 nm (47.3 km) SSE. Retrieved 2016/05/06 12:39 UTC (3 years ago):

TAF TAF ENCN 061100Z 0612/0712 14008KT 9999 FEW040